KATY/ATY METAR and TAF weather

Enter ICAO airport designator
Station Type Date Time Source
KATY METAR 2022/12/05 14:53 UTC NOAA

KATY 051453Z AUTO 32010KT 10SM SCT100 M06/M08 A2988 RMK AO2 SLP143 T10561083 52024


Station Type Date Time Source
KATY Decoded METAR 2022/12/05 14:53 UTC NOAA

WATERTOWN MUNICIPAL AIRPORT, SD, United States (KATY) 44-54N 097-09W 532M
Dec 05, 2022 - 09:53 AM EST / 2022.12.05 1453 UTC
Wind: from the NW (320 degrees) at 12 MPH (10 KT):0
Visibility: 10 mile(s):0
Sky conditions: partly cloudy
Temperature: 21.9 F (-5.6 C)
Windchill: 10 F (-12 C):1
Dew Point: 17.1 F (-8.3 C)
Relative Humidity: 81%
Pressure (altimeter): 29.88 in. Hg (1011 hPa)
Pressure tendency: 0.07 inches (2.4 hPa) higher than three hours ago
ob: KATY 051453Z AUTO 32010KT 10SM SCT100 M06/M08 A2988 RMK AO2 SLP143 T10561083 52024
cycle: 15

Station Type Date Time Source
KATY TAF 2022/12/05 12:22 UTC NOAA

TAF KATY 051120Z 0512/0612 34008KT P6SM OVC250
FM051800 34012G18KT P6SM OVC090
FM060000 35006KT P6SM SCT070
FM060800 13008KT P6SM BKN090

Example: see airport list